Forestburg, TX (76239)

9:30 PM CDT on August 28, 2014 (GMT -0500)
Thomsen | Change Station
CLOSE
Current Station
Personal Weather Station
Location: Forestburg, TX
Elevation: 921 ft
Nearby Weather Stations

Elev 921 ft 33.44 °N, 97.56 °W | Updated 17 seconds ago

Clear
Clear
82.0 °F
Feels Like 80 °F
N
0.0
Wind Variable Wind from NE

Today
High -- | Low -- °F
--% Chance of Precip.
Yesterday
High -- | Low -- °F
Precip. -- in
7:01 AM 8:00 PM
Waxing Crescent, 11% visible
Pressure 29.87 in
Visibility 10.0 miles
Clouds Clear
Heat Index 80 °F
Dew Point 44 °F
Humidity 26%
Rainfall 0.00 in
Snow Depth Not available.
UV 0 out of 12
Pollen 9.70 out of 12
Air Quality Not available.
Flu Activity Not available.
METAR K0F2 290215Z AUTO 10004KT 10SM CLR 29/16 A2987 RMK AO2 T02880161

More Conditions Fewer Conditions

Pressure 29.87 in
Visibility 10.0 miles
Clouds Clear
Heat Index 80 °F
Dew Point 44 °F
Humidity 26%
Rainfall 0.00 in
Snow Depth Not available.
UV 0 out of 12
Pollen 9.70 out of 12
Air Quality Not available.
Flu Activity Not available.
METAR K0F2 290215Z AUTO 10004KT 10SM CLR 29/16 A2987 RMK AO2 T02880161

More Conditions Fewer Conditions

Nowcast | as of 8:39 PM CDT on August 28, 2014

A complex of showers and thunderstorms will move eastward across north central Texas tonight. Showers and storms will be possible over the next several hours...primarily north of Interstate 20 and west of Interstate 35...and will be capable of producing gusty winds...cloud to ground lightning...and localized heavy rain. Temperatures will continue to fall into the low 80s over the next few hours with southeast winds around 10 mph.

×

10-Day Weather Forecast

Almanac

Astronomy

Aug. 28, 2014 Rise Set
Actual Time 7:01 AM CDT 8:00 PM CDT
Civil Twilight 6:36 AM CDT 8:26 PM CDT
Nautical Twilight 6:05 AM CDT 8:56 PM CDT
Astronomical Twilight 5:34 AM CDT 9:27 PM CDT
Moon 9:44 AM CDT (8/28) 9:37 PM CDT (8/28)
Length of Visible Light 13h 50m
Length of Day
12h 59m
Tomorrow will be 1m 57s shorter.
Waxing Crescent, 11% of the Moon is Illuminated
Today
Waxing Crescent
Sep 2
First Quarter
Sep 8
Full
Sep 15
Last Quarter
Sep 24
New

Today's Extremes

State Highs State Lows

Community

WunderPhotos

Upload Photos

1,748,134 photos uploaded!

Nearby

Snow Depth

Station Depth Elevation
No new snow has been reported.

Earthquake Activity

City Distance Mag. Time & Date
Harrah, Oklahoma 138 miles 2.5 8:53 AM CDT
2014-08-26
Minimum magnitude displayed is 2.5.

Coastal Water Temperatures

Place Temperature
No Stations Reporting

Nearby Weather Stations